Megan B. Settoon — WDD7489 — position and weather

sailwx.info

Track history (hours):
 
Tides and Currents Weather Stations Pressure Air Temp Water Temp Dewpoint Dewpoint Depression Visibility Wind Speed Wind Dir Waves Ship Positions

Megan B. Settoon

Owner: Settoon Towing, L.L.C., Pierre Part, LA. More information available from US FCC via Universal Licensing System and Coast Guard Vessel Documentation Center.

Last reported at 2017-Sep-20 17:17 UTC. Time now 2017-Sep-22 10:08 UTC.
Position N 29°33' W 090°25'.

Length 30 m; draft 6 m.

MMSI: 367187140.

Date/timePositionNaut miles runAvg speedWind from/ knotsBaromVisibWave heightAir tempDewpointWater temp
2017-Sep-20 17:17N 29°33' W 090°25'3 7.3
2017-Sep-20 16:51N 29°34' W 090°29'3 7.3
2017-Sep-20 16:30N 29°34' W 090°31'4 7.1
2017-Sep-20 16:00N 29°35' W 090°35'3 6.8
2017-Sep-20 15:31N 29°36' W 090°39'3 6.3
2017-Sep-20 15:00N 29°36' W 090°43'2 1.6
2017-Sep-20 14:00N 29°35' W 090°43'0 0.0
2017-Sep-20 13:30N 29°35' W 090°43'0 0.0
2017-Sep-20 13:00N 29°35' W 090°43'0 0.0
2017-Sep-20 12:30N 29°35' W 090°43'2 4.2
2017-Sep-20 12:00N 29°34' W 090°45'1 1.3
2017-Sep-20 11:30N 29°33' W 090°45'0 0.0
2017-Sep-20 11:00N 29°33' W 090°45'0 0.0
2017-Sep-20 10:30N 29°33' W 090°45'0 0.0
2017-Sep-20 10:00N 29°33' W 090°45'0 0.0
2017-Sep-20 09:30N 29°33' W 090°45'0 0.0
2017-Sep-20 09:00N 29°33' W 090°45'0 0.0
2017-Sep-20 08:30N 29°33' W 090°45'0 0.0
2017-Sep-20 08:01N 29°33' W 090°45'0 0.0
2017-Sep-20 07:30N 29°33' W 090°45'2 4.5
2017-Sep-20 07:00N 29°32' W 090°48'5 7.4
2017-Sep-20 06:23N 29°32' W 090°53'5 0.2
2017-Sep-19 04:23N 29°36' W 090°58'3 5.9
2017-Sep-19 03:56N 29°34' W 090°56'4 5.7
2017-Sep-19 03:16N 29°32' W 090°52'2 6.0
2017-Sep-19 03:00N 29°32' W 090°50'3 6.1
2017-Sep-19 02:30N 29°32' W 090°47'3 5.4
2017-Sep-19 02:01N 29°34' W 090°44'2 5.0
2017-Sep-19 01:30N 29°36' W 090°43'1 1.9
2017-Sep-19 01:01N 29°37' W 090°42'1 1.3
2017-Sep-19 00:30N 29°37' W 090°41'2 4.8
2017-Sep-19 00:01N 29°36' W 090°39'3 5.6
2017-Sep-18 23:30N 29°35' W 090°36'3 5.9
2017-Sep-18 23:00N 29°34' W 090°33'3 6.2
2017-Sep-18 22:30N 29°34' W 090°29'  
2017-Sep-16 14:55N 29°33' W 090°28'3 6.7
2017-Sep-16 14:30N 29°34' W 090°31'3 6.5
2017-Sep-16 14:00N 29°34' W 090°35'3 5.4
2017-Sep-16 13:30N 29°35' W 090°38'3 6.1
2017-Sep-16 13:00N 29°36' W 090°41'2 4.0
2017-Sep-16 12:30N 29°35' W 090°43'0 0.8
2017-Sep-16 12:00N 29°35' W 090°43'0 0.0
2017-Sep-16 11:30N 29°35' W 090°43'0 0.0
2017-Sep-16 11:00N 29°35' W 090°43'0 0.0
2017-Sep-16 10:30N 29°35' W 090°43'0 0.0
2017-Sep-16 10:00N 29°35' W 090°43'0 0.0
2017-Sep-16 09:30N 29°35' W 090°43'0 0.0
2017-Sep-16 09:00N 29°35' W 090°43'0 0.0
2017-Sep-16 08:30N 29°35' W 090°43'0 0.0
2017-Sep-16 08:00N 29°35' W 090°43'0 0.0
2017-Sep-16 07:30N 29°35' W 090°43'0 0.0
2017-Sep-16 07:00N 29°35' W 090°43'0 0.0
2017-Sep-16 06:30N 29°35' W 090°43'0 0.0
2017-Sep-16 06:00N 29°35' W 090°43'0 0.0
2017-Sep-16 05:30N 29°35' W 090°43'0 0.0
2017-Sep-16 05:00N 29°35' W 090°43'0 0.0
2017-Sep-16 04:30N 29°35' W 090°43'0 0.0
2017-Sep-16 04:00N 29°35' W 090°43'0 0.0
2017-Sep-16 03:30N 29°35' W 090°43'0 0.0
2017-Sep-16 03:00N 29°35' W 090°43'0 0.0
2017-Sep-16 02:30N 29°35' W 090°43'0 0.0
2017-Sep-16 02:00N 29°35' W 090°43'0 0.0
2017-Sep-16 01:30N 29°35' W 090°43'0 0.0
2017-Sep-16 01:00N 29°35' W 090°43'0 0.0
2017-Sep-16 00:30N 29°35' W 090°43'0 0.0
2017-Sep-16 00:00N 29°35' W 090°43'0 0.0
2017-Sep-15 23:30N 29°35' W 090°43'0 0.0
2017-Sep-15 23:00N 29°35' W 090°43'0 0.0
2017-Sep-15 22:30N 29°35' W 090°43'0 0.0
2017-Sep-15 22:00N 29°35' W 090°43'0 0.0
2017-Sep-15 21:30N 29°35' W 090°43'0 0.0
2017-Sep-15 21:00N 29°35' W 090°43'0 0.0
2017-Sep-15 20:30N 29°35' W 090°43'0 0.0
2017-Sep-15 20:00N 29°35' W 090°43'0 0.0
2017-Sep-15 19:30N 29°35' W 090°43'0 0.0
2017-Sep-15 19:00N 29°35' W 090°43'0 0.0
2017-Sep-15 18:30N 29°35' W 090°43'0 0.0
2017-Sep-15 18:00N 29°35' W 090°43'0 0.0
2017-Sep-15 17:30N 29°35' W 090°43'0 0.0
2017-Sep-15 17:00N 29°35' W 090°43'0 0.0
2017-Sep-15 16:30N 29°35' W 090°43'0 0.0
2017-Sep-15 16:00N 29°35' W 090°43'0 0.0
2017-Sep-15 15:30N 29°35' W 090°43'0 0.0
2017-Sep-15 15:00N 29°35' W 090°43'0 0.0
2017-Sep-15 14:30N 29°35' W 090°43'0 0.0
2017-Sep-15 14:00N 29°35' W 090°43'0 0.0
2017-Sep-15 13:30N 29°35' W 090°43'0 0.0
2017-Sep-15 13:00N 29°35' W 090°43'0 0.0
2017-Sep-15 12:30N 29°35' W 090°43'0 0.0
2017-Sep-15 12:00N 29°35' W 090°43'0 0.0
2017-Sep-15 11:30N 29°35' W 090°43'0 0.0
2017-Sep-15 11:00N 29°35' W 090°43'0 0.0
2017-Sep-15 10:30N 29°35' W 090°43'0 0.0
2017-Sep-15 10:00N 29°35' W 090°43'0 0.0
2017-Sep-15 09:30N 29°35' W 090°43'0 0.0
2017-Sep-15 09:00N 29°35' W 090°43'0 0.0
2017-Sep-15 08:30N 29°35' W 090°43'0 0.0
2017-Sep-15 08:00N 29°35' W 090°43'0 0.0
2017-Sep-15 07:30N 29°35' W 090°43'0 0.0
2017-Sep-15 07:00N 29°35' W 090°43'0 0.0
2017-Sep-15 06:30N 29°35' W 090°43'0 0.0
2017-Sep-15 06:00N 29°35' W 090°43'0 0.0
2017-Sep-15 05:30N 29°35' W 090°43'0 0.0
2017-Sep-15 05:00N 29°35' W 090°43'0 0.0
2017-Sep-15 04:30N 29°35' W 090°43'0 0.0
2017-Sep-15 04:00N 29°35' W 090°43'0 0.0
2017-Sep-15 03:30N 29°35' W 090°43'0 0.0
2017-Sep-15 03:00N 29°35' W 090°43'0 0.0
2017-Sep-15 02:30N 29°35' W 090°43'0 0.0
2017-Sep-15 02:00N 29°35' W 090°43'0 0.0
2017-Sep-15 01:30N 29°35' W 090°43'0 0.0
2017-Sep-15 01:00N 29°35' W 090°43'0 0.0
2017-Sep-15 00:30N 29°35' W 090°43'0 0.0
2017-Sep-15 00:00N 29°35' W 090°43'1 2.3
2017-Sep-14 23:30N 29°34' W 090°43'0 0.6
2017-Sep-14 23:00N 29°33' W 090°43'0 0.3
2017-Sep-14 22:30N 29°33' W 090°42'1 2.3
2017-Sep-14 22:00N 29°32' W 090°42'3 6.6
2017-Sep-14 21:30N 29°29' W 090°43'3 6.5
2017-Sep-14 21:00N 29°26' W 090°43'1 0.0
2017-Sep-13 16:35N 29°24' W 090°44'1 7.1
2017-Sep-13 16:30N 29°25' W 090°43'4 7.2
2017-Sep-13 16:00N 29°29' W 090°43'4 7.1
2017-Sep-13 15:30N 29°32' W 090°42'3 5.8
2017-Sep-13 15:00N 29°35' W 090°43'0 0.0
2017-Sep-13 14:30N 29°35' W 090°43'0 0.0
2017-Sep-13 14:00N 29°35' W 090°43'0 0.0
2017-Sep-13 13:30N 29°35' W 090°43'0 0.0
2017-Sep-13 13:00N 29°35' W 090°43'0 0.0
2017-Sep-13 12:30N 29°35' W 090°43'0 0.0
2017-Sep-13 12:00N 29°35' W 090°43'0 0.0
2017-Sep-13 11:30N 29°35' W 090°43'0 0.0
2017-Sep-13 11:00N 29°35' W 090°43'0 0.0
2017-Sep-13 10:30N 29°35' W 090°43'0 0.0
2017-Sep-13 10:01N 29°35' W 090°43'0 0.0
2017-Sep-13 09:30N 29°35' W 090°43'0 0.0
2017-Sep-13 09:00N 29°35' W 090°43'0 0.0
2017-Sep-13 08:30N 29°35' W 090°43'0 0.0
2017-Sep-13 08:00N 29°35' W 090°43'0 0.0
2017-Sep-13 07:30N 29°35' W 090°43'0 0.0
2017-Sep-13 07:00N 29°35' W 090°43'0 0.0
2017-Sep-13 06:30N 29°35' W 090°43'0 0.0
2017-Sep-13 06:00N 29°35' W 090°43'0 0.0
2017-Sep-13 05:30N 29°35' W 090°43'0 0.0
2017-Sep-13 05:00N 29°35' W 090°43'0 0.0
2017-Sep-13 04:30N 29°35' W 090°43'0 0.0
2017-Sep-13 04:00N 29°35' W 090°43'0 0.0
2017-Sep-13 03:30N 29°35' W 090°43'0 0.0
2017-Sep-13 03:00N 29°35' W 090°43'0 0.0
2017-Sep-13 02:30N 29°35' W 090°43'0 0.0
2017-Sep-13 02:00N 29°35' W 090°43'0 0.0
2017-Sep-13 01:30N 29°35' W 090°43'0 0.0
2017-Sep-13 01:00N 29°35' W 090°43'0 0.0
2017-Sep-13 00:30N 29°35' W 090°43'0 0.0
2017-Sep-13 00:00N 29°35' W 090°43'0 0.0
2017-Sep-12 23:30N 29°35' W 090°43'0 0.0
2017-Sep-12 23:00N 29°35' W 090°43'0 0.0
2017-Sep-12 22:30N 29°35' W 090°43'0 0.0
2017-Sep-12 22:00N 29°35' W 090°43'0 0.0
2017-Sep-12 21:30N 29°35' W 090°43'0 0.0
2017-Sep-12 21:00N 29°35' W 090°43'0 0.0
2017-Sep-12 20:06N 29°35' W 090°43'0 0.1
2017-Sep-12 20:00N 29°35' W 090°43'0 0.0
2017-Sep-12 19:30N 29°35' W 090°43'0 0.0
2017-Sep-12 19:00N 29°35' W 090°43'0 0.0
2017-Sep-12 18:30N 29°35' W 090°43'0 0.0
2017-Sep-12 18:00N 29°35' W 090°43'0 0.0
2017-Sep-12 17:31N 29°35' W 090°43'0 0.0
2017-Sep-12 17:00N 29°35' W 090°43'0 0.0
2017-Sep-12 16:30N 29°35' W 090°43'0 0.0
2017-Sep-12 16:00N 29°35' W 090°43'0 0.0
2017-Sep-12 15:30N 29°35' W 090°43'0 0.0
2017-Sep-12 15:00N 29°35' W 090°43'0 0.0
2017-Sep-12 14:30N 29°35' W 090°43'0 0.2
2017-Sep-12 14:00N 29°35' W 090°43'0 0.2
2017-Sep-12 13:30N 29°35' W 090°43'0 0.0
2017-Sep-12 13:00N 29°35' W 090°43'0 0.0
2017-Sep-12 12:30N 29°35' W 090°43'0 0.0
2017-Sep-12 09:15N 29°35' W 090°43'0 0.0
2017-Sep-12 09:00N 29°35' W 090°43'0 0.0
2017-Sep-12 08:30N 29°35' W 090°43'0 0.0
2017-Sep-12 08:00N 29°35' W 090°43'0 0.0
2017-Sep-12 07:30N 29°35' W 090°43'0 0.0
2017-Sep-12 07:00N 29°35' W 090°43'0 0.0
2017-Sep-12 06:30N 29°35' W 090°43'0 0.0
2017-Sep-12 06:01N 29°35' W 090°43'0 0.0
2017-Sep-12 05:30N 29°35' W 090°43'0 0.0
2017-Sep-12 05:00N 29°35' W 090°43'0 0.0
2017-Sep-12 04:30N 29°35' W 090°43'0 0.0
2017-Sep-12 04:00N 29°35' W 090°43'0 0.0
2017-Sep-12 03:30N 29°35' W 090°43'0 0.0
2017-Sep-12 03:00N 29°35' W 090°43'0 0.0
2017-Sep-12 02:30N 29°35' W 090°43'0 0.0
2017-Sep-12 02:00N 29°35' W 090°43'0 0.0
2017-Sep-12 01:30N 29°35' W 090°43'0 0.0
2017-Sep-12 01:00N 29°35' W 090°43'0 0.0
2017-Sep-12 00:30N 29°35' W 090°43'0 0.0
2017-Sep-12 00:00N 29°35' W 090°43'0 0.0
2017-Sep-11 23:30N 29°35' W 090°43'0 0.0
2017-Sep-11 23:01N 29°35' W 090°43'0 0.0
2017-Sep-11 22:30N 29°35' W 090°43'0 0.0
2017-Sep-11 22:00N 29°35' W 090°43'0 0.0
2017-Sep-11 21:30N 29°35' W 090°43'0 0.0
2017-Sep-11 21:00N 29°35' W 090°43'0 0.0
2017-Sep-11 20:30N 29°35' W 090°43'0 0.0
2017-Sep-11 20:01N 29°35' W 090°43'0 0.0
2017-Sep-11 19:30N 29°35' W 090°43'0 0.0
2017-Sep-11 19:00N 29°35' W 090°43'0 0.0
2017-Sep-11 18:30N 29°35' W 090°43'0 0.0
2017-Sep-11 18:00N 29°35' W 090°43'0 0.0
2017-Sep-11 17:30N 29°35' W 090°43'0 0.0
2017-Sep-11 17:00N 29°35' W 090°43'0 0.0
2017-Sep-11 16:30N 29°35' W 090°43'0 0.0
2017-Sep-11 16:00N 29°35' W 090°43'0 0.0
2017-Sep-11 15:30N 29°35' W 090°43'0 0.0
2017-Sep-11 15:00N 29°35' W 090°43'0 0.0
2017-Sep-11 14:31N 29°35' W 090°43'0 0.0
2017-Sep-11 14:00N 29°35' W 090°43'0 0.0
2017-Sep-11 13:30N 29°35' W 090°43'0 0.0
2017-Sep-11 13:00N 29°35' W 090°43'0 0.0
2017-Sep-11 12:30N 29°35' W 090°43'0 0.0
2017-Sep-11 12:00N 29°35' W 090°43'0 0.0
2017-Sep-11 11:30N 29°35' W 090°43'0 0.0
2017-Sep-11 11:00N 29°35' W 090°43'0 0.0
2017-Sep-11 10:31N 29°35' W 090°43'0 0.0
2017-Sep-11 10:00N 29°35' W 090°43'0 0.0
2017-Sep-11 09:30N 29°35' W 090°43'0 0.0
2017-Sep-11 09:00N 29°35' W 090°43'0 0.0
2017-Sep-11 08:31N 29°35' W 090°43'0 0.0
2017-Sep-11 08:00N 29°35' W 090°43'0 0.0
2017-Sep-11 07:30N 29°35' W 090°43'0 0.0
2017-Sep-11 07:01N 29°35' W 090°43'0 0.0
2017-Sep-11 06:31N 29°35' W 090°43'0 0.0
2017-Sep-11 06:00N 29°35' W 090°43'0 0.0
2017-Sep-11 05:30N 29°35' W 090°43'0 0.0
2017-Sep-11 05:00N 29°35' W 090°43'0 0.0
2017-Sep-11 04:30N 29°35' W 090°43'0 0.0
2017-Sep-11 04:00N 29°35' W 090°43'0 0.0
2017-Sep-11 03:31N 29°35' W 090°43'0 0.0
2017-Sep-11 03:00N 29°35' W 090°43'0 0.0
2017-Sep-11 02:30N 29°35' W 090°43'0 0.0
2017-Sep-11 02:00N 29°35' W 090°43'0 0.0
2017-Sep-11 01:30N 29°35' W 090°43'0 0.0
2017-Sep-11 01:01N 29°35' W 090°43'0 0.0
2017-Sep-11 00:30N 29°35' W 090°43'0 0.0
2017-Sep-11 00:00N 29°35' W 090°43'0 0.0
2017-Sep-10 23:30N 29°35' W 090°43'0 0.0
2017-Sep-10 23:00N 29°35' W 090°43'0 0.0
2017-Sep-10 22:30N 29°35' W 090°43'0 0.0
2017-Sep-10 22:00N 29°35' W 090°43'0 0.7
2017-Sep-10 21:30N 29°35' W 090°43'3 6.4
2017-Sep-10 21:00N 29°32' W 090°46'4 7.4
2017-Sep-10 20:30N 29°32' W 090°50'  
Track history (hours):
 
Tides and Currents Weather Stations Pressure Air Temp Water Temp Dewpoint Dewpoint Depression Visibility Wind Speed Wind Dir Waves Ship Positions

Megan B. Settoon

Owner: Settoon Towing, L.L.C., Pierre Part, LA. More information available from US FCC via Universal Licensing System and Coast Guard Vessel Documentation Center.

Last reported at 2017-Sep-20 17:17 UTC. Time now 2017-Sep-22 10:08 UTC.
Position N 29°33' W 090°25'.

Length 30 m; draft 6 m.

MMSI: 367187140.

Date/timePositionNaut miles runAvg speedWind from/ knotsBaromVisibWave heightAir tempDewpointWater temp
2017-Sep-20 17:17N 29°33' W 090°25'3 7.3
2017-Sep-20 16:51N 29°34' W 090°29'3 7.3
2017-Sep-20 16:30N 29°34' W 090°31'4 7.1
2017-Sep-20 16:00N 29°35' W 090°35'3 6.8
2017-Sep-20 15:31N 29°36' W 090°39'3 6.3
2017-Sep-20 15:00N 29°36' W 090°43'2 1.6
2017-Sep-20 14:00N 29°35' W 090°43'0 0.0
2017-Sep-20 13:30N 29°35' W 090°43'0 0.0
2017-Sep-20 13:00N 29°35' W 090°43'0 0.0
2017-Sep-20 12:30N 29°35' W 090°43'2 4.2
2017-Sep-20 12:00N 29°34' W 090°45'1 1.3
2017-Sep-20 11:30N 29°33' W 090°45'0 0.0
2017-Sep-20 11:00N 29°33' W 090°45'0 0.0
2017-Sep-20 10:30N 29°33' W 090°45'0 0.0
2017-Sep-20 10:00N 29°33' W 090°45'0 0.0
2017-Sep-20 09:30N 29°33' W 090°45'0 0.0
2017-Sep-20 09:00N 29°33' W 090°45'0 0.0
2017-Sep-20 08:30N 29°33' W 090°45'0 0.0
2017-Sep-20 08:01N 29°33' W 090°45'0 0.0
2017-Sep-20 07:30N 29°33' W 090°45'2 4.5
2017-Sep-20 07:00N 29°32' W 090°48'5 7.4
2017-Sep-20 06:23N 29°32' W 090°53'5 0.2
2017-Sep-19 04:23N 29°36' W 090°58'3 5.9
2017-Sep-19 03:56N 29°34' W 090°56'4 5.7
2017-Sep-19 03:16N 29°32' W 090°52'2 6.0
2017-Sep-19 03:00N 29°32' W 090°50'3 6.1
2017-Sep-19 02:30N 29°32' W 090°47'3 5.4
2017-Sep-19 02:01N 29°34' W 090°44'2 5.0
2017-Sep-19 01:30N 29°36' W 090°43'1 1.9
2017-Sep-19 01:01N 29°37' W 090°42'1 1.3
2017-Sep-19 00:30N 29°37' W 090°41'2 4.8
2017-Sep-19 00:01N 29°36' W 090°39'3 5.6
2017-Sep-18 23:30N 29°35' W 090°36'3 5.9
2017-Sep-18 23:00N 29°34' W 090°33'3 6.2
2017-Sep-18 22:30N 29°34' W 090°29'  
2017-Sep-16 14:55N 29°33' W 090°28'3 6.7
2017-Sep-16 14:30N 29°34' W 090°31'3 6.5
2017-Sep-16 14:00N 29°34' W 090°35'3 5.4
2017-Sep-16 13:30N 29°35' W 090°38'3 6.1
2017-Sep-16 13:00N 29°36' W 090°41'2 4.0
2017-Sep-16 12:30N 29°35' W 090°43'0 0.8
2017-Sep-16 12:00N 29°35' W 090°43'0 0.0
2017-Sep-16 11:30N 29°35' W 090°43'0 0.0
2017-Sep-16 11:00N 29°35' W 090°43'0 0.0
2017-Sep-16 10:30N 29°35' W 090°43'0 0.0
2017-Sep-16 10:00N 29°35' W 090°43'0 0.0
2017-Sep-16 09:30N 29°35' W 090°43'0 0.0
2017-Sep-16 09:00N 29°35' W 090°43'0 0.0
2017-Sep-16 08:30N 29°35' W 090°43'0 0.0
2017-Sep-16 08:00N 29°35' W 090°43'0 0.0
2017-Sep-16 07:30N 29°35' W 090°43'0 0.0
2017-Sep-16 07:00N 29°35' W 090°43'0 0.0
2017-Sep-16 06:30N 29°35' W 090°43'0 0.0
2017-Sep-16 06:00N 29°35' W 090°43'0 0.0
2017-Sep-16 05:30N 29°35' W 090°43'0 0.0
2017-Sep-16 05:00N 29°35' W 090°43'0 0.0
2017-Sep-16 04:30N 29°35' W 090°43'0 0.0
2017-Sep-16 04:00N 29°35' W 090°43'0 0.0
2017-Sep-16 03:30N 29°35' W 090°43'0 0.0
2017-Sep-16 03:00N 29°35' W 090°43'0 0.0
2017-Sep-16 02:30N 29°35' W 090°43'0 0.0
2017-Sep-16 02:00N 29°35' W 090°43'0 0.0
2017-Sep-16 01:30N 29°35' W 090°43'0 0.0
2017-Sep-16 01:00N 29°35' W 090°43'0 0.0
2017-Sep-16 00:30N 29°35' W 090°43'0 0.0
2017-Sep-16 00:00N 29°35' W 090°43'0 0.0
2017-Sep-15 23:30N 29°35' W 090°43'0 0.0
2017-Sep-15 23:00N 29°35' W 090°43'0 0.0
2017-Sep-15 22:30N 29°35' W 090°43'0 0.0
2017-Sep-15 22:00N 29°35' W 090°43'0 0.0
2017-Sep-15 21:30N 29°35' W 090°43'0 0.0
2017-Sep-15 21:00N 29°35' W 090°43'0 0.0
2017-Sep-15 20:30N 29°35' W 090°43'0 0.0
2017-Sep-15 20:00N 29°35' W 090°43'0 0.0
2017-Sep-15 19:30N 29°35' W 090°43'0 0.0
2017-Sep-15 19:00N 29°35' W 090°43'0 0.0
2017-Sep-15 18:30N 29°35' W 090°43'0 0.0
2017-Sep-15 18:00N 29°35' W 090°43'0 0.0
2017-Sep-15 17:30N 29°35' W 090°43'0 0.0
2017-Sep-15 17:00N 29°35' W 090°43'0 0.0
2017-Sep-15 16:30N 29°35' W 090°43'0 0.0
2017-Sep-15 16:00N 29°35' W 090°43'0 0.0
2017-Sep-15 15:30N 29°35' W 090°43'0 0.0
2017-Sep-15 15:00N 29°35' W 090°43'0 0.0
2017-Sep-15 14:30N 29°35' W 090°43'0 0.0
2017-Sep-15 14:00N 29°35' W 090°43'0 0.0
2017-Sep-15 13:30N 29°35' W 090°43'0 0.0
2017-Sep-15 13:00N 29°35' W 090°43'0 0.0
2017-Sep-15 12:30N 29°35' W 090°43'0 0.0
2017-Sep-15 12:00N 29°35' W 090°43'0 0.0
2017-Sep-15 11:30N 29°35' W 090°43'0 0.0
2017-Sep-15 11:00N 29°35' W 090°43'0 0.0
2017-Sep-15 10:30N 29°35' W 090°43'0 0.0
2017-Sep-15 10:00N 29°35' W 090°43'0 0.0
2017-Sep-15 09:30N 29°35' W 090°43'0 0.0
2017-Sep-15 09:00N 29°35' W 090°43'0 0.0
2017-Sep-15 08:30N 29°35' W 090°43'0 0.0
2017-Sep-15 08:00N 29°35' W 090°43'0 0.0
2017-Sep-15 07:30N 29°35' W 090°43'0 0.0
2017-Sep-15 07:00N 29°35' W 090°43'0 0.0
2017-Sep-15 06:30N 29°35' W 090°43'0 0.0
2017-Sep-15 06:00N 29°35' W 090°43'0 0.0
2017-Sep-15 05:30N 29°35' W 090°43'0 0.0
2017-Sep-15 05:00N 29°35' W 090°43'0 0.0
2017-Sep-15 04:30N 29°35' W 090°43'0 0.0
2017-Sep-15 04:00N 29°35' W 090°43'0 0.0
2017-Sep-15 03:30N 29°35' W 090°43'0 0.0
2017-Sep-15 03:00N 29°35' W 090°43'0 0.0
2017-Sep-15 02:30N 29°35' W 090°43'0 0.0
2017-Sep-15 02:00N 29°35' W 090°43'0 0.0
2017-Sep-15 01:30N 29°35' W 090°43'0 0.0
2017-Sep-15 01:00N 29°35' W 090°43'0 0.0
2017-Sep-15 00:30N 29°35' W 090°43'0 0.0
2017-Sep-15 00:00N 29°35' W 090°43'1 2.3
2017-Sep-14 23:30N 29°34' W 090°43'0 0.6
2017-Sep-14 23:00N 29°33' W 090°43'0 0.3
2017-Sep-14 22:30N 29°33' W 090°42'1 2.3
2017-Sep-14 22:00N 29°32' W 090°42'3 6.6
2017-Sep-14 21:30N 29°29' W 090°43'3 6.5
2017-Sep-14 21:00N 29°26' W 090°43'1 0.0
2017-Sep-13 16:35N 29°24' W 090°44'1 7.1
2017-Sep-13 16:30N 29°25' W 090°43'4 7.2
2017-Sep-13 16:00N 29°29' W 090°43'4 7.1
2017-Sep-13 15:30N 29°32' W 090°42'3 5.8
2017-Sep-13 15:00N 29°35' W 090°43'0 0.0
2017-Sep-13 14:30N 29°35' W 090°43'0 0.0
2017-Sep-13 14:00N 29°35' W 090°43'0 0.0
2017-Sep-13 13:30N 29°35' W 090°43'0 0.0
2017-Sep-13 13:00N 29°35' W 090°43'0 0.0
2017-Sep-13 12:30N 29°35' W 090°43'0 0.0
2017-Sep-13 12:00N 29°35' W 090°43'0 0.0
2017-Sep-13 11:30N 29°35' W 090°43'0 0.0
2017-Sep-13 11:00N 29°35' W 090°43'0 0.0
2017-Sep-13 10:30N 29°35' W 090°43'0 0.0
2017-Sep-13 10:01N 29°35' W 090°43'0 0.0
2017-Sep-13 09:30N 29°35' W 090°43'0 0.0
2017-Sep-13 09:00N 29°35' W 090°43'0 0.0
2017-Sep-13 08:30N 29°35' W 090°43'0 0.0
2017-Sep-13 08:00N 29°35' W 090°43'0 0.0
2017-Sep-13 07:30N 29°35' W 090°43'0 0.0
2017-Sep-13 07:00N 29°35' W 090°43'0 0.0
2017-Sep-13 06:30N 29°35' W 090°43'0 0.0
2017-Sep-13 06:00N 29°35' W 090°43'0 0.0
2017-Sep-13 05:30N 29°35' W 090°43'0 0.0
2017-Sep-13 05:00N 29°35' W 090°43'0 0.0
2017-Sep-13 04:30N 29°35' W 090°43'0 0.0
2017-Sep-13 04:00N 29°35' W 090°43'0 0.0
2017-Sep-13 03:30N 29°35' W 090°43'0 0.0
2017-Sep-13 03:00N 29°35' W 090°43'0 0.0
2017-Sep-13 02:30N 29°35' W 090°43'0 0.0
2017-Sep-13 02:00N 29°35' W 090°43'0 0.0
2017-Sep-13 01:30N 29°35' W 090°43'0 0.0
2017-Sep-13 01:00N 29°35' W 090°43'0 0.0
2017-Sep-13 00:30N 29°35' W 090°43'0 0.0
2017-Sep-13 00:00N 29°35' W 090°43'0 0.0
2017-Sep-12 23:30N 29°35' W 090°43'0 0.0
2017-Sep-12 23:00N 29°35' W 090°43'0 0.0
2017-Sep-12 22:30N 29°35' W 090°43'0 0.0
2017-Sep-12 22:00N 29°35' W 090°43'0 0.0
2017-Sep-12 21:30N 29°35' W 090°43'0 0.0
2017-Sep-12 21:00N 29°35' W 090°43'0 0.0
2017-Sep-12 20:06N 29°35' W 090°43'0 0.1
2017-Sep-12 20:00N 29°35' W 090°43'0 0.0
2017-Sep-12 19:30N 29°35' W 090°43'0 0.0
2017-Sep-12 19:00N 29°35' W 090°43'0 0.0
2017-Sep-12 18:30N 29°35' W 090°43'0 0.0
2017-Sep-12 18:00N 29°35' W 090°43'0 0.0
2017-Sep-12 17:31N 29°35' W 090°43'0 0.0
2017-Sep-12 17:00N 29°35' W 090°43'0 0.0
2017-Sep-12 16:30N 29°35' W 090°43'0 0.0
2017-Sep-12 16:00N 29°35' W 090°43'0 0.0
2017-Sep-12 15:30N 29°35' W 090°43'0 0.0
2017-Sep-12 15:00N 29°35' W 090°43'0 0.0
2017-Sep-12 14:30N 29°35' W 090°43'0 0.2
2017-Sep-12 14:00N 29°35' W 090°43'0 0.2
2017-Sep-12 13:30N 29°35' W 090°43'0 0.0
2017-Sep-12 13:00N 29°35' W 090°43'0 0.0
2017-Sep-12 12:30N 29°35' W 090°43'0 0.0
2017-Sep-12 09:15N 29°35' W 090°43'0 0.0
2017-Sep-12 09:00N 29°35' W 090°43'0 0.0
2017-Sep-12 08:30N 29°35' W 090°43'0 0.0
2017-Sep-12 08:00N 29°35' W 090°43'0 0.0
2017-Sep-12 07:30N 29°35' W 090°43'0 0.0
2017-Sep-12 07:00N 29°35' W 090°43'0 0.0
2017-Sep-12 06:30N 29°35' W 090°43'0 0.0
2017-Sep-12 06:01N 29°35' W 090°43'0 0.0
2017-Sep-12 05:30N 29°35' W 090°43'0 0.0
2017-Sep-12 05:00N 29°35' W 090°43'0 0.0
2017-Sep-12 04:30N 29°35' W 090°43'0 0.0
2017-Sep-12 04:00N 29°35' W 090°43'0 0.0
2017-Sep-12 03:30N 29°35' W 090°43'0 0.0
2017-Sep-12 03:00N 29°35' W 090°43'0 0.0
2017-Sep-12 02:30N 29°35' W 090°43'0 0.0
2017-Sep-12 02:00N 29°35' W 090°43'0 0.0
2017-Sep-12 01:30N 29°35' W 090°43'0 0.0
2017-Sep-12 01:00N 29°35' W 090°43'0 0.0
2017-Sep-12 00:30N 29°35' W 090°43'0 0.0
2017-Sep-12 00:00N 29°35' W 090°43'0 0.0
2017-Sep-11 23:30N 29°35' W 090°43'0 0.0
2017-Sep-11 23:01N 29°35' W 090°43'0 0.0
2017-Sep-11 22:30N 29°35' W 090°43'0 0.0
2017-Sep-11 22:00N 29°35' W 090°43'0 0.0
2017-Sep-11 21:30N 29°35' W 090°43'0 0.0
2017-Sep-11 21:00N 29°35' W 090°43'0 0.0
2017-Sep-11 20:30N 29°35' W 090°43'0 0.0
2017-Sep-11 20:01N 29°35' W 090°43'0 0.0
2017-Sep-11 19:30N 29°35' W 090°43'0 0.0
2017-Sep-11 19:00N 29°35' W 090°43'0 0.0
2017-Sep-11 18:30N 29°35' W 090°43'0 0.0
2017-Sep-11 18:00N 29°35' W 090°43'0 0.0
2017-Sep-11 17:30N 29°35' W 090°43'0 0.0
2017-Sep-11 17:00N 29°35' W 090°43'0 0.0
2017-Sep-11 16:30N 29°35' W 090°43'0 0.0
2017-Sep-11 16:00N 29°35' W 090°43'0 0.0
2017-Sep-11 15:30N 29°35' W 090°43'0 0.0
2017-Sep-11 15:00N 29°35' W 090°43'0 0.0
2017-Sep-11 14:31N 29°35' W 090°43'0 0.0
2017-Sep-11 14:00N 29°35' W 090°43'0 0.0
2017-Sep-11 13:30N 29°35' W 090°43'0 0.0
2017-Sep-11 13:00N 29°35' W 090°43'0 0.0
2017-Sep-11 12:30N 29°35' W 090°43'0 0.0
2017-Sep-11 12:00N 29°35' W 090°43'0 0.0
2017-Sep-11 11:30N 29°35' W 090°43'0 0.0
2017-Sep-11 11:00N 29°35' W 090°43'0 0.0
2017-Sep-11 10:31N 29°35' W 090°43'0 0.0
2017-Sep-11 10:00N 29°35' W 090°43'0 0.0
2017-Sep-11 09:30N 29°35' W 090°43'0 0.0
2017-Sep-11 09:00N 29°35' W 090°43'0 0.0
2017-Sep-11 08:31N 29°35' W 090°43'0 0.0
2017-Sep-11 08:00N 29°35' W 090°43'0 0.0
2017-Sep-11 07:30N 29°35' W 090°43'0 0.0
2017-Sep-11 07:01N 29°35' W 090°43'0 0.0
2017-Sep-11 06:31N 29°35' W 090°43'0 0.0
2017-Sep-11 06:00N 29°35' W 090°43'0 0.0
2017-Sep-11 05:30N 29°35' W 090°43'0 0.0
2017-Sep-11 05:00N 29°35' W 090°43'0 0.0
2017-Sep-11 04:30N 29°35' W 090°43'0 0.0
2017-Sep-11 04:00N 29°35' W 090°43'0 0.0
2017-Sep-11 03:31N 29°35' W 090°43'0 0.0
2017-Sep-11 03:00N 29°35' W 090°43'0 0.0
2017-Sep-11 02:30N 29°35' W 090°43'0 0.0
2017-Sep-11 02:00N 29°35' W 090°43'0 0.0
2017-Sep-11 01:30N 29°35' W 090°43'0 0.0
2017-Sep-11 01:01N 29°35' W 090°43'0 0.0
2017-Sep-11 00:30N 29°35' W 090°43'0 0.0
2017-Sep-11 00:00N 29°35' W 090°43'0 0.0
2017-Sep-10 23:30N 29°35' W 090°43'0 0.0
2017-Sep-10 23:00N 29°35' W 090°43'0 0.0
2017-Sep-10 22:30N 29°35' W 090°43'0 0.0
2017-Sep-10 22:00N 29°35' W 090°43'0 0.7
2017-Sep-10 21:30N 29°35' W 090°43'3 6.4
2017-Sep-10 21:00N 29°32' W 090°46'4 7.4
2017-Sep-10 20:30N 29°32' W 090°50'  

Dump ship's entire track history